Time;durP1;ratioP1;P1;durP2;ratioP2;P2;SDS_P1;SDS_P2;PMS_P1;PMS_P2;Temp;Humidity;BMP_temperature;BMP_pressure;BME280_temperature;BME280_humidity;BME280_pressure;Samples;Min_cycle;Max_cycle;Signal;HPM_P1;HPM_P2
2022/05/28 00:00:56;;;;;;;3.80;1.00;;;;;;;19.56;36.14;101978.81;5032100;28;20105;-67
2022/05/28 00:03:23;;;;;;;5.25;1.30;;;;;;;19.54;36.91;101975.38;5033321;28;20060;-68
2022/05/28 00:05:48;;;;;;;2.85;0.82;;;;;;;19.53;36.42;101968.25;5031787;28;20499;-67
2022/05/28 00:08:13;;;;;;;6.65;0.85;;;;;;;19.53;36.34;101970.13;5013075;28;20117;-67
2022/05/28 00:10:40;;;;;;;3.90;1.35;;;;;;;19.52;36.45;101973.84;5030706;28;20036;-67
2022/05/28 00:13:05;;;;;;;5.05;1.38;;;;;;;19.51;36.47;101978.44;5031788;28;20096;-67
2022/05/28 00:15:31;;;;;;;3.67;1.15;;;;;;;19.49;36.67;101980.44;5033215;28;20547;-67
2022/05/28 00:17:58;;;;;;;9.23;1.42;;;;;;;19.46;36.03;101975.31;5033078;28;20415;-69
2022/05/28 00:20:26;;;;;;;10.18;1.27;;;;;;;19.46;36.97;101982.63;5033060;28;20029;-67
2022/05/28 00:22:52;;;;;;;7.35;1.55;;;;;;;19.42;36.64;101973.09;5010512;28;20018;-68
2022/05/28 00:25:17;;;;;;;3.50;0.85;;;;;;;19.38;36.49;101972.56;5032565;28;20021;-67
2022/05/28 00:27:43;;;;;;;6.00;1.25;;;;;;;19.32;36.41;101970.44;5031165;28;20025;-67
2022/05/28 00:30:11;;;;;;;3.40;1.30;;;;;;;19.27;36.76;101963.75;5032482;28;20025;-68
2022/05/28 00:32:36;;;;;;;1.45;0.90;;;;;;;19.24;36.22;101980.38;5012305;28;20040;-67
2022/05/28 00:35:04;;;;;;;5.03;1.05;;;;;;;19.20;37.14;101969.00;5032459;28;20021;-67
2022/05/28 00:37:30;;;;;;;1.98;1.20;;;;;;;19.17;36.98;101967.44;5029711;28;20021;-67
2022/05/28 00:39:55;;;;;;;8.35;1.65;;;;;;;19.14;37.31;101962.34;5030876;28;20036;-67
2022/05/28 00:42:20;;;;;;;7.28;1.35;;;;;;;19.11;37.48;101965.34;5045483;28;20049;-67
2022/05/28 00:44:46;;;;;;;5.00;1.05;;;;;;;19.10;37.57;101969.06;5033735;28;20101;-67
2022/05/28 00:47:12;;;;;;;5.32;1.23;;;;;;;19.09;36.84;101966.53;5032662;28;20037;-67
2022/05/28 00:49:37;;;;;;;6.22;1.13;;;;;;;19.07;37.10;101968.53;5032714;28;20548;-67
2022/05/28 00:52:07;;;;;;;4.60;1.40;;;;;;;19.06;36.67;101956.84;5032576;28;20065;-67
2022/05/28 00:54:36;;;;;;;6.05;1.38;;;;;;;19.04;37.06;101966.13;5018223;28;20029;-68
2022/05/28 00:57:03;;;;;;;5.40;1.10;;;;;;;19.00;36.44;101962.88;5012431;28;20030;-67
2022/05/28 00:59:29;;;;;;;7.50;1.10;;;;;;;19.00;37.59;101965.59;5012445;28;20025;-67
2022/05/28 01:02:00;;;;;;;6.00;1.38;;;;;;;18.99;37.04;101971.16;5014221;28;20038;-68
2022/05/28 01:04:52;;;;;;;8.70;1.58;;;;;;;18.95;36.83;101962.50;5012878;28;20017;-67
2022/05/28 01:07:30;;;;;;;7.93;2.22;;;;;;;18.94;37.56;101960.78;5032688;28;20049;-68
2022/05/28 01:10:04;;;;;;;2.50;1.73;;;;;;;18.92;37.85;101956.53;5033386;28;20024;-67
2022/05/28 01:13:10;;;;;;;7.75;1.98;;;;;;;18.89;37.19;101954.97;5033444;28;20115;-68
2022/05/28 01:15:40;;;;;;;10.43;1.55;;;;;;;18.87;37.78;101953.44;5033250;28;20029;-67
2022/05/28 01:18:24;;;;;;;4.65;1.20;;;;;;;18.86;37.53;101949.84;5031988;28;20029;-68
2022/05/28 01:20:53;;;;;;;3.47;1.42;;;;;;;18.85;36.94;101956.28;5015874;28;20025;-67
2022/05/28 01:24:04;;;;;;;7.25;1.13;;;;;;;18.85;37.62;101950.84;5032235;28;20075;-67
2022/05/28 01:26:32;;;;;;;4.22;1.90;;;;;;;18.85;37.66;101948.13;5021286;28;20045;-67
2022/05/28 01:29:02;;;;;;;6.00;1.33;;;;;;;18.83;37.11;101952.00;5032197;28;20083;-68
2022/05/28 01:31:28;;;;;;;8.48;1.70;;;;;;;18.82;37.23;101948.44;5033404;28;20060;-67
2022/05/28 01:33:55;;;;;;;7.35;1.58;;;;;;;18.85;37.43;101944.56;5032907;28;20072;-67
2022/05/28 01:36:21;;;;;;;9.65;2.45;;;;;;;18.85;38.20;101940.00;5033322;28;20041;-67
2022/05/28 01:38:46;;;;;;;5.50;1.10;;;;;;;18.87;37.17;101945.28;5030671;28;20044;-67
2022/05/28 01:41:12;;;;;;;7.82;2.00;;;;;;;18.87;38.04;101935.25;5013475;28;20113;-68
2022/05/28 01:43:41;;;;;;;9.38;1.92;;;;;;;18.90;38.29;101934.94;4995885;28;20083;-68
2022/05/28 01:46:08;;;;;;;6.45;1.40;;;;;;;18.91;37.84;101923.06;5028463;28;20026;-67
2022/05/28 01:48:34;;;;;;;8.93;1.85;;;;;;;18.93;38.43;101923.75;5013209;28;20034;-67
2022/05/28 01:51:01;;;;;;;5.95;1.85;;;;;;;18.94;38.47;101919.19;5013392;28;20388;-67
2022/05/28 01:56:11;;;;;;;7.32;1.90;;;;;;;18.94;38.46;101925.47;5012228;28;20024;-67
2022/05/28 01:58:37;;;;;;;5.47;2.47;;;;;;;18.96;38.38;101919.88;5013205;28;20104;-67
2022/05/28 02:01:04;;;;;;;6.53;1.60;;;;;;;18.96;38.17;101923.44;5012228;28;20084;-66
2022/05/28 02:03:33;;;;;;;7.38;1.45;;;;;;;18.99;38.58;101930.44;5029708;28;20395;-67
2022/05/28 02:05:58;;;;;;;8.00;2.35;;;;;;;18.97;38.02;101919.75;5015703;28;20096;-67
2022/05/28 02:08:24;;;;;;;6.53;1.38;;;;;;;19.01;38.51;101923.00;5015777;28;20021;-67
2022/05/28 02:11:15;;;;;;;6.90;2.28;;;;;;;18.99;38.84;101923.16;5015493;28;20034;-66
2022/05/28 02:14:01;;;;;;;8.75;1.90;;;;;;;18.99;39.15;101923.16;5016558;28;20029;-67
2022/05/28 02:16:32;;;;;;;4.93;1.50;;;;;;;18.97;38.18;101922.47;5016549;28;20491;-67
2022/05/28 02:19:06;;;;;;;9.15;1.30;;;;;;;18.97;37.84;101916.16;5015427;28;20498;-67
2022/05/28 02:21:43;;;;;;;4.65;1.30;;;;;;;18.95;38.03;101919.06;5015488;28;20049;-68
2022/05/28 02:24:15;;;;;;;15.15;2.40;;;;;;;18.96;38.07;101918.03;4998943;28;20034;-67
2022/05/28 02:26:45;;;;;;;5.30;2.13;;;;;;;18.97;38.76;101914.31;5031512;28;20037;-67
2022/05/28 02:29:11;;;;;;;6.72;1.17;;;;;;;18.96;37.86;101912.59;5016220;28;20092;-67
2022/05/28 02:31:37;;;;;;;7.07;1.92;;;;;;;18.97;38.26;101914.31;5015006;28;20025;-67
2022/05/28 02:34:03;;;;;;;9.75;1.95;;;;;;;18.97;38.36;101914.31;5015264;28;20022;-67
2022/05/28 02:36:29;;;;;;;15.15;1.80;;;;;;;18.97;38.47;101908.88;5014871;28;20033;-67
2022/05/28 02:38:55;;;;;;;11.13;1.85;;;;;;;18.98;39.02;101905.13;5031348;28;20030;-68
2022/05/28 02:41:21;;;;;;;5.38;1.60;;;;;;;18.94;38.33;101898.31;5015965;28;20392;-68
2022/05/28 02:43:46;;;;;;;8.35;1.52;;;;;;;18.99;38.39;101904.13;5016317;28;20530;-68
2022/05/28 02:46:12;;;;;;;6.10;1.40;;;;;;;19.00;39.26;101903.13;5016042;28;20033;-67
2022/05/28 02:48:39;;;;;;;5.70;1.38;;;;;;;19.03;38.82;101907.41;5014718;28;20042;-67
2022/05/28 02:51:09;;;;;;;8.23;1.88;;;;;;;19.02;38.46;101906.53;5015899;28;20053;-67
2022/05/28 02:53:35;;;;;;;6.65;1.80;;;;;;;19.02;38.15;101909.25;5015732;28;20033;-67
2022/05/28 02:56:01;;;;;;;10.45;1.60;;;;;;;19.03;38.90;101902.81;5016056;28;20030;-67
2022/05/28 02:58:26;;;;;;;8.23;1.48;;;;;;;19.02;38.50;101911.97;5015814;28;20028;-67
2022/05/28 03:00:52;;;;;;;11.55;2.08;;;;;;;19.01;39.16;101907.53;5015754;28;20111;-68
2022/05/28 03:03:19;;;;;;;9.73;1.35;;;;;;;19.03;38.73;101901.97;5015548;28;20040;-67
2022/05/28 03:05:47;;;;;;;12.18;1.92;;;;;;;19.03;38.35;101902.81;5015556;28;20077;-67
2022/05/28 03:08:13;;;;;;;10.13;2.83;;;;;;;19.02;38.84;101906.53;5030850;28;20030;-67
2022/05/28 03:10:38;;;;;;;10.05;1.83;;;;;;;19.02;38.75;101903.81;5015680;28;20107;-67
2022/05/28 03:13:03;;;;;;;9.48;1.83;;;;;;;18.99;38.73;101895.97;5015295;28;20056;-67
2022/05/28 03:15:29;;;;;;;8.52;1.55;;;;;;;18.97;38.90;101900.72;5015542;28;20220;-68
2022/05/28 03:17:55;;;;;;;6.85;1.65;;;;;;;18.95;38.52;101900.03;5015508;28;20029;-67
2022/05/28 03:20:21;;;;;;;9.20;1.98;;;;;;;18.95;39.09;101904.63;5015504;28;20089;-67
2022/05/28 03:22:46;;;;;;;8.95;1.92;;;;;;;18.93;38.90;101902.03;5015557;28;20399;-68
2022/05/28 03:25:11;;;;;;;8.13;1.65;;;;;;;18.91;38.97;101905.94;5014004;28;20036;-68
2022/05/28 03:27:37;;;;;;;11.38;1.30;;;;;;;18.89;39.55;101903.38;5015475;28;20057;-67
2022/05/28 03:30:03;;;;;;;8.15;1.48;;;;;;;18.86;38.95;101909.13;5015258;28;20057;-67
2022/05/28 03:32:29;;;;;;;9.20;1.80;;;;;;;18.85;38.84;101904.69;5014502;28;20454;-67
2022/05/28 03:34:54;;;;;;;11.52;1.85;;;;;;;18.85;39.57;101910.13;5015122;28;20108;-66
2022/05/28 03:37:19;;;;;;;9.70;2.15;;;;;;;18.82;39.01;101905.00;5015058;28;20099;-67
2022/05/28 03:39:45;;;;;;;7.68;1.70;;;;;;;18.84;39.03;101913.88;5013912;28;20048;-67
2022/05/28 03:42:10;;;;;;;4.60;1.40;;;;;;;18.80;39.28;101912.47;5014783;28;20018;-67
2022/05/28 03:44:36;;;;;;;7.63;2.10;;;;;;;18.79;38.85;101910.75;5014878;28;20018;-67
2022/05/28 03:47:02;;;;;;;12.93;2.15;;;;;;;18.78;39.23;101906.34;5014839;28;20127;-67
2022/05/28 03:49:30;;;;;;;5.47;1.98;;;;;;;18.77;39.91;101915.47;5013626;28;20117;-68
2022/05/28 03:51:56;;;;;;;5.75;2.17;;;;;;;18.76;38.65;101911.06;5013481;28;20026;-67
2022/05/28 03:54:21;;;;;;;4.72;1.38;;;;;;;18.77;39.26;101912.75;5014595;28;20076;-67
2022/05/28 03:56:48;;;;;;;11.52;2.17;;;;;;;18.77;38.52;101901.03;5029866;28;20034;-67
2022/05/28 03:59:14;;;;;;;6.22;2.00;;;;;;;18.76;39.65;101905.63;5013472;28;20029;-67
2022/05/28 04:01:40;;;;;;;12.98;1.80;;;;;;;18.77;39.41;101918.19;5013399;28;20160;-67
2022/05/28 04:04:06;;;;;;;8.52;1.90;;;;;;;18.78;39.83;101910.91;5014788;28;20034;-67
2022/05/28 04:06:34;;;;;;;12.70;1.55;;;;;;;18.78;39.28;101913.63;5014509;28;20053;-67
2022/05/28 04:09:00;;;;;;;4.78;2.08;;;;;;;18.78;39.44;101914.47;5014926;28;20030;-67
2022/05/28 04:11:25;;;;;;;16.80;2.60;;;;;;;18.77;39.74;101918.19;5014816;28;20025;-68
2022/05/28 04:13:50;;;;;;;9.35;1.80;;;;;;;18.78;39.06;101921.78;5013273;28;20220;-67
2022/05/28 04:16:16;;;;;;;12.13;2.53;;;;;;;18.79;38.79;101926.19;5014446;28;20025;-67
2022/05/28 04:18:41;;;;;;;6.03;1.80;;;;;;;18.81;39.75;101919.59;5014158;28;20038;-67
2022/05/28 04:21:07;;;;;;;6.15;1.75;;;;;;;18.85;39.27;101931.84;5027239;28;20025;-67
2022/05/28 04:23:33;;;;;;;10.18;2.00;;;;;;;18.91;38.66;101922.22;5032950;28;20471;-67
2022/05/28 04:25:59;;;;;;;7.53;1.83;;;;;;;18.97;38.71;101925.16;5049121;28;20022;-67
2022/05/28 04:28:24;;;;;;;10.10;1.77;;;;;;;19.02;39.57;101922.84;5032652;28;20075;-67
2022/05/28 04:30:49;;;;;;;7.43;1.67;;;;;;;19.07;39.94;101915.06;5016549;28;20515;-67
2022/05/28 04:33:15;;;;;;;11.15;1.77;;;;;;;19.16;39.33;101916.84;5012903;28;20472;-67
2022/05/28 04:35:40;;;;;;;9.82;1.63;;;;;;;19.23;39.41;101913.50;5015756;28;20471;-68
2022/05/28 04:38:05;;;;;;;10.85;2.22;;;;;;;19.28;38.97;101911.16;5029724;28;20049;-67
2022/05/28 04:40:31;;;;;;;11.13;2.00;;;;;;;19.39;39.11;101910.91;5029363;28;20024;-67
2022/05/28 04:42:56;;;;;;;4.35;1.67;;;;;;;19.46;38.96;101907.38;5032730;28;20036;-67
2022/05/28 04:45:22;;;;;;;4.13;1.67;;;;;;;19.56;39.27;101910.00;5026842;28;20377;-67
2022/05/28 04:47:47;;;;;;;8.65;1.40;;;;;;;19.65;38.88;101914.47;5012710;28;20025;-67
2022/05/28 04:50:13;;;;;;;9.63;2.10;;;;;;;19.73;39.15;101909.09;5012742;28;20108;-67
2022/05/28 04:52:38;;;;;;;7.05;2.00;;;;;;;19.85;38.69;101915.91;5013902;28;20030;-67
2022/05/28 04:55:06;;;;;;;6.78;2.10;;;;;;;19.96;38.80;101912.09;5013714;28;20118;-67
2022/05/28 04:57:32;;;;;;;8.35;2.38;;;;;;;20.09;38.76;101916.03;5012832;28;20029;-67
2022/05/28 04:59:58;;;;;;;7.95;1.63;;;;;;;20.18;38.95;101917.75;5021063;28;20026;-67
2022/05/28 05:02:23;;;;;;;14.65;2.53;;;;;;;20.31;38.99;101922.78;5032549;28;20033;-67
2022/05/28 05:04:54;;;;;;;7.95;2.60;;;;;;;20.43;38.73;101921.47;5033381;28;20396;-67
2022/05/28 05:07:19;;;;;;;7.32;2.00;;;;;;;20.54;39.30;101923.00;5033657;28;20029;-67
2022/05/28 05:09:45;;;;;;;7.90;2.00;;;;;;;20.64;38.65;101924.56;5033725;28;20030;-67
2022/05/28 05:12:10;;;;;;;7.78;1.80;;;;;;;20.76;38.71;101922.34;5033499;28;20041;-67
2022/05/28 05:14:35;;;;;;;8.95;1.92;;;;;;;20.86;38.90;101923.91;5029091;28;20030;-67
2022/05/28 05:17:01;;;;;;;9.77;2.15;;;;;;;21.01;38.37;101921.34;5012399;28;20026;-67
2022/05/28 05:19:26;;;;;;;14.52;2.58;;;;;;;21.13;38.52;101922.75;5012726;28;20379;-67
2022/05/28 05:21:54;;;;;;;10.95;2.53;;;;;;;21.26;38.03;101924.94;5013635;28;20028;-67
2022/05/28 05:24:21;;;;;;;7.72;1.60;;;;;;;21.39;38.41;101923.38;5013766;28;20533;-67
2022/05/28 05:26:47;;;;;;;7.68;2.00;;;;;;;21.53;38.31;101924.56;5013886;28;20036;-67
2022/05/28 05:29:12;;;;;;;10.43;2.25;;;;;;;21.64;38.69;101926.06;5012839;28;20101;-66
2022/05/28 05:31:40;;;;;;;8.50;1.77;;;;;;;21.77;38.37;101929.97;5013502;28;20061;-67
2022/05/28 05:34:06;;;;;;;5.97;1.80;;;;;;;21.91;38.03;101928.41;5013546;28;20080;-67
2022/05/28 05:36:31;;;;;;;9.10;1.98;;;;;;;22.05;38.38;101933.97;5013401;28;20021;-67
2022/05/28 05:38:56;;;;;;;10.15;2.13;;;;;;;22.17;37.48;101920.78;5015337;28;20105;-67
2022/05/28 05:41:22;;;;;;;10.60;1.75;;;;;;;22.35;38.17;101926.00;5017634;28;20030;-67
2022/05/28 05:43:47;;;;;;;4.90;1.13;;;;;;;22.52;38.27;101927.59;5017475;28;20025;-67
2022/05/28 05:46:13;;;;;;;9.18;1.65;;;;;;;22.71;38.00;101940.81;5017560;28;20088;-67
2022/05/28 05:48:39;;;;;;;5.80;1.77;;;;;;;22.89;37.85;101938.63;5015879;28;20030;-67
2022/05/28 05:51:05;;;;;;;8.25;1.83;;;;;;;23.06;37.36;101932.00;5017549;28;20108;-67
2022/05/28 05:53:31;;;;;;;9.05;2.50;;;;;;;23.18;37.52;101932.41;5016047;28;20048;-67
2022/05/28 05:55:56;;;;;;;5.93;2.10;;;;;;;23.33;36.63;101936.03;5028317;28;20021;-68
2022/05/28 05:58:21;;;;;;;6.68;1.60;;;;;;;23.46;36.95;101936.28;5036995;28;20061;-67
2022/05/28 06:00:47;;;;;;;11.85;2.17;;;;;;;23.59;36.60;101936.47;5035653;28;20029;-67
2022/05/28 06:03:16;;;;;;;6.55;1.08;;;;;;;23.74;37.12;101933.75;5035582;28;20037;-67
2022/05/28 06:05:43;;;;;;;8.15;2.45;;;;;;;23.88;37.21;101930.19;5036412;28;20042;-68
2022/05/28 06:08:08;;;;;;;4.53;1.02;;;;;;;24.02;37.22;101933.94;5036624;28;20113;-67
2022/05/28 06:10:33;;;;;;;7.40;1.80;;;;;;;24.09;36.09;101937.63;5036625;28;20057;-67
2022/05/28 06:12:59;;;;;;;5.90;2.08;;;;;;;24.19;36.20;101940.94;5036532;28;20103;-67
2022/05/28 06:15:24;;;;;;;5.68;1.60;;;;;;;24.34;36.88;101928.91;5036230;28;20053;-67
2022/05/28 06:17:49;;;;;;;9.77;1.45;;;;;;;24.50;35.91;101929.75;5034910;28;20045;-68
2022/05/28 06:20:15;;;;;;;7.45;1.33;;;;;;;24.65;36.57;101934.13;5035057;28;20029;-67
2022/05/28 06:22:41;;;;;;;11.13;2.78;;;;;;;24.80;36.08;101932.22;5036158;28;20033;-68
2022/05/28 06:25:06;;;;;;;6.22;1.23;;;;;;;24.97;36.10;101920.97;5035169;28;20022;-66
2022/05/28 06:27:32;;;;;;;6.65;1.25;;;;;;;25.08;35.91;101928.69;5029972;28;20628;-67
2022/05/28 06:29:58;;;;;;;8.77;1.38;;;;;;;25.15;35.46;101929.59;5016401;28;20060;-67
2022/05/28 06:32:23;;;;;;;4.93;1.50;;;;;;;25.24;35.41;101933.88;5024645;28;20539;-66
2022/05/28 06:34:48;;;;;;;7.50;1.10;;;;;;;25.37;35.33;101931.25;5034788;28;20060;-67
2022/05/28 06:37:15;;;;;;;4.32;1.35;;;;;;;25.53;35.21;101933.72;5035878;28;20071;-67
2022/05/28 06:39:40;;;;;;;4.20;0.93;;;;;;;25.61;34.85;101935.47;5026695;28;20495;-67
2022/05/28 06:42:06;;;;;;;5.60;0.98;;;;;;;25.63;34.49;101928.72;5036832;28;20025;-67
2022/05/28 06:44:32;;;;;;;5.45;1.27;;;;;;;25.88;34.17;101937.34;5036085;28;20022;-67
2022/05/28 06:46:57;;;;;;;4.55;0.63;;;;;;;25.58;34.42;101935.88;5035628;28;20029;-67
2022/05/28 06:49:23;;;;;;;11.63;1.23;;;;;;;25.79;33.87;101939.41;5035265;28;20037;-68
2022/05/28 06:51:49;;;;;;;3.80;0.68;;;;;;;25.45;34.15;101937.44;5035816;28;20387;-67
2022/05/28 06:54:14;;;;;;;3.40;1.20;;;;;;;25.41;34.29;101936.13;5035515;28;20037;-67
2022/05/28 06:56:40;;;;;;;7.13;0.57;;;;;;;25.41;34.14;101938.03;5035762;28;20025;-67
2022/05/28 06:59:05;;;;;;;2.15;0.98;;;;;;;25.55;34.00;101931.63;5023640;28;20030;-67
2022/05/28 07:01:31;;;;;;;3.78;1.20;;;;;;;25.81;33.54;101930.97;5016228;28;20037;-67
2022/05/28 07:03:56;;;;;;;4.10;0.95;;;;;;;26.14;33.06;101934.75;5016217;28;20030;-67
2022/05/28 07:06:22;;;;;;;7.57;0.90;;;;;;;26.15;33.22;101932.88;5015476;28;20423;-67
2022/05/28 07:08:47;;;;;;;4.82;1.00;;;;;;;26.57;33.17;101938.97;5015632;28;20057;-67
2022/05/28 07:11:13;;;;;;;6.32;0.88;;;;;;;26.95;32.10;101941.16;5015400;28;20391;-67
2022/05/28 07:13:39;;;;;;;4.70;1.23;;;;;;;27.33;32.48;101933.16;5015343;28;20041;-67
2022/05/28 07:16:06;;;;;;;6.55;0.98;;;;;;;27.55;32.37;101942.91;5015511;28;20034;-67
2022/05/28 07:18:32;;;;;;;3.83;0.70;;;;;;;27.83;32.30;101938.00;5030479;28;20061;-67
2022/05/28 07:20:58;;;;;;;7.55;0.95;;;;;;;28.00;31.27;101935.63;5015161;28;20033;-67
2022/05/28 07:23:26;;;;;;;4.93;0.68;;;;;;;28.29;31.49;101946.13;5014136;28;20030;-67
2022/05/28 07:26:11;;;;;;;2.85;0.45;;;;;;;28.03;31.67;101937.97;5014076;28;20157;-67
2022/05/28 07:28:38;;;;;;;6.40;0.60;;;;;;;27.74;31.85;101947.53;5015253;28;20034;-67
2022/05/28 07:31:09;;;;;;;3.22;0.80;;;;;;;27.58;30.93;101948.00;5015479;28;20559;-66
2022/05/28 07:33:39;;;;;;;1.83;0.32;;;;;;;27.67;31.67;101946.69;5030258;28;20478;-66
2022/05/28 07:36:07;;;;;;;2.28;0.65;;;;;;;27.90;31.06;101941.56;5015231;28;20033;-67
2022/05/28 07:38:34;;;;;;;4.55;0.50;;;;;;;28.01;31.28;101940.03;5030121;28;20057;-67
2022/05/28 07:41:04;;;;;;;4.32;0.88;;;;;;;27.81;30.55;101942.84;5014985;28;20495;-67
2022/05/28 07:43:30;;;;;;;3.72;0.80;;;;;;;28.26;30.55;101944.66;5015079;28;20025;-67
2022/05/28 07:45:55;;;;;;;3.92;1.13;;;;;;;27.86;30.90;101943.09;5014834;28;20053;-67
2022/05/28 07:48:21;;;;;;;5.60;0.50;;;;;;;28.23;30.68;101945.09;5015072;28;20022;-66
2022/05/28 07:50:46;;;;;;;3.88;0.55;;;;;;;28.48;29.98;101936.06;5015053;28;20472;-67
2022/05/28 07:53:12;;;;;;;5.25;0.60;;;;;;;28.77;29.13;101943.78;5014967;28;20364;-67
2022/05/28 07:55:38;;;;;;;2.67;0.75;;;;;;;29.08;29.39;101942.94;5013771;28;20432;-67
2022/05/28 07:58:14;;;;;;;4.20;0.63;;;;;;;29.32;29.00;101942.97;5015333;28;20088;-67
2022/05/28 08:00:42;;;;;;;3.35;0.88;;;;;;;29.52;28.84;101933.66;5015082;28;20025;-67
2022/05/28 08:03:08;;;;;;;3.53;1.10;;;;;;;29.52;28.97;101936.44;5013706;28;20499;-67
2022/05/28 08:05:35;;;;;;;2.15;1.25;;;;;;;29.03;29.01;101921.53;5015352;28;20498;-67
2022/05/28 08:08:01;;;;;;;4.22;0.70;;;;;;;29.00;28.81;101926.66;5015328;28;20108;-67
2022/05/28 08:10:27;;;;;;;3.03;0.55;;;;;;;28.68;29.36;101936.84;5015179;28;20475;-67
2022/05/28 08:12:52;;;;;;;4.00;0.68;;;;;;;28.48;29.90;101936.06;5014857;28;20028;-67
2022/05/28 08:15:18;;;;;;;2.38;0.60;;;;;;;28.26;29.62;101933.63;5013493;28;20041;-67
2022/05/28 08:17:43;;;;;;;2.00;0.50;;;;;;;28.00;30.11;101930.94;5014804;28;20065;-67
2022/05/28 08:20:10;;;;;;;4.97;0.77;;;;;;;27.75;30.09;101938.19;5014606;28;20459;-68
2022/05/28 08:25:19;;;;;;;5.25;0.52;;;;;;;27.38;30.03;101938.88;5014468;28;20028;-67
2022/05/28 08:27:44;;;;;;;3.75;0.70;;;;;;;27.25;29.94;101938.88;5014297;28;20387;-67
2022/05/28 08:30:10;;;;;;;3.95;0.60;;;;;;;27.12;29.65;101939.72;5013372;28;20029;-66
2022/05/28 08:32:36;;;;;;;4.53;0.85;;;;;;;27.13;29.81;101941.41;5012664;28;20072;-67
2022/05/28 08:35:01;;;;;;;3.05;0.63;;;;;;;27.24;29.82;101943.53;5013887;28;20472;-67
2022/05/28 08:37:27;;;;;;;2.17;0.50;;;;;;;27.37;29.82;101945.41;5013537;28;20540;-67
2022/05/28 08:39:52;;;;;;;3.10;0.55;;;;;;;27.29;30.07;101942.88;5014790;28;20117;-67
2022/05/28 08:42:21;;;;;;;4.57;0.88;;;;;;;27.24;29.51;101945.44;5013806;28;20061;-67
2022/05/28 08:44:46;;;;;;;5.93;0.50;;;;;;;27.34;29.38;101940.34;5012529;28;20137;-67
2022/05/28 08:47:16;;;;;;;4.03;0.60;;;;;;;27.90;29.42;101947.06;5013773;28;20050;-67
2022/05/28 08:49:42;;;;;;;5.70;1.33;;;;;;;28.34;28.28;101948.25;5013662;28;20060;-67
2022/05/28 08:52:12;;;;;;;5.50;0.75;;;;;;;28.99;28.27;101947.88;5013823;28;20038;-67
2022/05/28 08:54:56;;;;;;;2.67;0.70;;;;;;;29.60;27.49;101938.91;5013163;28;20113;-67
2022/05/28 08:57:28;;;;;;;3.45;0.60;;;;;;;29.80;27.86;101939.59;5013690;28;20080;-67
2022/05/28 08:59:58;;;;;;;1.35;0.30;;;;;;;29.80;27.12;101939.59;5013008;28;20021;-67
2022/05/28 09:02:51;;;;;;;1.88;0.50;;;;;;;29.20;28.21;101941.97;5029767;28;20076;-66
2022/05/28 09:05:40;;;;;;;4.20;0.60;;;;;;;28.80;28.37;101940.59;5023336;28;20053;-67
2022/05/28 09:08:06;;;;;;;2.17;0.40;;;;;;;28.57;28.39;101943.03;5013622;28;20116;-66
2022/05/28 09:10:44;;;;;;;2.22;0.40;;;;;;;28.39;28.54;101940.16;5053234;28;20108;-67
2022/05/28 09:13:29;;;;;;;1.45;0.22;;;;;;;28.50;27.34;101939.47;5035212;28;20130;-67
2022/05/28 09:15:56;;;;;;;5.60;0.45;;;;;;;28.86;27.83;101931.44;5020038;28;20182;-66
2022/05/28 09:18:22;;;;;;;2.25;0.40;;;;;;;29.50;26.48;101933.06;5020604;28;20053;-67
2022/05/28 09:20:48;;;;;;;0.55;0.52;;;;;;;29.25;27.08;101925.66;5037507;28;20128;-67
2022/05/28 09:23:14;;;;;;;2.15;0.45;;;;;;;29.05;27.48;101941.47;5037157;28;20053;-66
2022/05/28 09:25:43;;;;;;;6.88;0.32;;;;;;;28.75;27.74;101938.50;5037511;28;20045;-67
2022/05/28 09:28:26;;;;;;;3.75;0.65;;;;;;;29.43;26.72;101939.47;5038057;28;20026;-67
2022/05/28 09:31:25;;;;;;;2.17;0.82;;;;;;;29.71;26.20;101929.84;5038132;28;20089;-66
2022/05/28 09:34:01;;;;;;;1.17;0.20;;;;;;;29.38;26.85;101925.53;5037388;28;20398;-66
2022/05/28 09:36:26;;;;;;;1.35;0.60;;;;;;;29.96;26.10;101919.63;5037609;28;20033;-67
2022/05/28 09:39:13;;;;;;;2.70;0.30;;;;;;;29.71;25.87;101916.91;5026267;28;20037;-67
2022/05/28 09:41:53;;;;;;;1.33;0.20;;;;;;;29.75;25.99;101920.06;5018115;28;20030;-66
2022/05/28 09:44:46;;;;;;;2.00;0.65;;;;;;;29.45;26.67;101920.75;5017628;28;20026;-66
2022/05/28 09:47:14;;;;;;;4.38;0.43;;;;;;;28.96;26.55;101920.75;5017823;28;20029;-66
2022/05/28 09:49:51;;;;;;;4.53;0.68;;;;;;;29.14;26.40;101929.09;5016383;28;20026;-66
2022/05/28 09:52:30;;;;;;;5.72;0.70;;;;;;;29.83;25.58;101912.34;5019402;28;20030;-66
2022/05/28 09:55:12;;;;;;;2.17;0.43;;;;;;;29.63;26.04;101914.44;5037773;28;20076;-66
2022/05/28 09:58:05;;;;;;;2.72;0.60;;;;;;;29.36;26.36;101913.88;5038071;28;20025;-66
2022/05/28 10:00:31;;;;;;;3.38;0.20;;;;;;;29.11;26.13;101918.50;5025021;28;20391;-66
2022/05/28 10:05:51;;;;;;;2.15;0.40;;;;;;;28.39;26.91;101923.63;5017004;28;20073;-66
2022/05/28 10:08:16;;;;;;;1.60;0.57;;;;;;;29.75;25.46;101915.38;5017599;28;20058;-67
2022/05/28 10:10:52;;;;;;;6.35;1.15;;;;;;;31.76;23.40;101912.88;5031803;28;20103;-66
2022/05/28 10:13:20;;;;;;;0.93;0.60;;;;;;;32.93;22.67;101903.94;5016406;28;20076;-67
2022/05/28 10:15:53;;;;;;;2.08;0.68;;;;;;;33.16;21.97;101914.94;5016389;28;20145;-67
2022/05/28 10:18:39;;;;;;;3.90;0.57;;;;;;;33.25;23.36;101898.69;5016587;28;20050;-67
2022/05/28 10:21:11;;;;;;;2.70;1.38;;;;;;;33.38;23.17;101890.00;5031824;28;20033;-67
2022/05/28 10:23:40;;;;;;;;;;;;;;;33.60;22.79;101890.91;5016595;28;20041;-67
2022/05/28 10:26:15;;;;;;;2.13;1.20;;;;;;;33.90;22.58;101888.53;5016011;28;19917;-68
2022/05/28 10:28:45;;;;;;;4.28;0.65;;;;;;;33.42;23.29;101893.94;5031886;28;20030;-67
2022/05/28 10:31:22;;;;;;;6.00;0.82;;;;;;;32.91;22.29;101878.38;5016655;28;20038;-66
2022/05/28 10:33:48;;;;;;;0.95;0.32;;;;;;;32.18;23.10;101879.19;5015227;28;20030;-67
2022/05/28 10:36:17;;;;;;;2.35;1.80;;;;;;;32.93;22.42;101884.50;5016210;28;20022;-67
2022/05/28 10:38:43;;;;;;;1.90;1.35;;;;;;;33.58;22.45;101884.78;5016507;28;20104;-67
2022/05/28 10:41:25;;;;;;;1.63;1.00;;;;;;;33.46;23.12;101886.78;5016600;28;20539;-67
2022/05/28 10:43:50;;;;;;;3.40;1.67;;;;;;;34.07;22.25;101876.50;5016602;28;20022;-67
2022/05/28 10:46:18;;;;;;;1.45;1.35;;;;;;;34.60;21.66;101873.84;5016503;28;20079;-66
2022/05/28 10:48:57;;;;;;;4.43;0.88;;;;;;;34.85;21.51;101876.84;5016483;28;20025;-67
2022/05/28 10:51:28;;;;;;;2.58;0.32;;;;;;;33.92;22.69;101866.06;5016431;28;20057;-67
2022/05/28 10:54:24;;;;;;;1.50;0.30;;;;;;;33.56;21.73;101878.56;5015603;28;20498;-66
2022/05/28 10:56:55;;;;;;;1.52;0.80;;;;;;;33.53;22.25;101876.31;5016471;28;20097;-67
2022/05/28 10:59:44;;;;;;;1.23;0.50;;;;;;;33.29;22.19;101869.28;5015926;28;20084;-67
2022/05/28 11:02:28;;;;;;;4.40;0.38;;;;;;;32.55;22.37;101868.53;5015090;28;20029;-67
2022/05/28 11:04:53;;;;;;;4.25;0.45;;;;;;;31.98;23.52;101866.78;5015431;28;20054;-67
2022/05/28 11:07:26;;;;;;;4.38;0.60;;;;;;;31.52;23.25;101871.31;5015754;28;20032;-67
2022/05/28 11:09:57;;;;;;;;;;;;;;;31.69;23.49;101875.03;5015940;28;20475;-67
2022/05/28 11:12:53;;;;;;;3.08;0.55;;;;;;;32.30;22.50;101873.59;4998041;28;19919;-67
2022/05/28 11:15:24;;;;;;;4.15;0.38;;;;;;;32.66;22.20;101870.44;5015833;28;20549;-67
2022/05/28 11:18:27;;;;;;;3.60;0.40;;;;;;;32.13;22.77;101861.59;5015616;28;20033;-67
2022/05/28 11:20:55;;;;;;;;;;;;;;;31.57;23.43;101863.16;5015841;28;20026;-66
2022/05/28 11:23:30;;;;;;;3.08;0.70;;;;;;;31.13;23.48;101859.00;5015352;28;19963;-66
2022/05/28 11:25:57;;;;;;;3.40;1.42;;;;;;;30.77;24.10;101863.84;5014229;28;20014;-66
2022/05/28 11:28:43;;;;;;;3.22;0.82;;;;;;;30.91;23.40;101865.31;5014194;28;20034;-67
2022/05/28 11:31:30;;;;;;;1.52;0.45;;;;;;;31.96;23.03;101853.19;5013911;28;20184;-67
2022/05/28 11:34:01;;;;;;;1.80;0.60;;;;;;;32.84;22.67;101849.91;5014144;28;20530;-66
2022/05/28 11:36:38;;;;;;;3.83;1.25;;;;;;;33.51;21.33;101845.16;5029796;28;20025;-66
2022/05/28 11:39:08;;;;;;;3.15;0.43;;;;;;;34.17;21.14;101833.00;5015580;28;20029;-66
2022/05/28 11:41:49;;;;;;;2.10;0.65;;;;;;;34.73;21.91;101837.19;5014131;28;20438;-67